Teterboro, NJ

2:09 AM EST en Noviembre 23, 2014 (GMT -0500)
Teterboro | Change Station
CLOSE
Current Station
Aeropuerto
Location: Teterboro,
Altura: 7 ft
Estaciones meteorológicas cercanas

Alt 7 ft 40.86 °N, 74.06 °W | Updated 18 minutes ago

Muy nublado
Muy nublado
41 ° F
Sensación térmica 39 ° F
N
4
Viento Variable Viento desde SO

Hoy
Alta -- | Baja -- ° F
--% Posibilidad de precipitaciones
Ayer
Alta -- | Baja -- ° F
Precip. -- pul
6:52 AM 4:32 PM
Luna nueva, 1% visible
Presión 30.18 pul
Visibilidad 10.0 Millas
Nubes Nubes dispersas 12000 ft
Vientos helados 39 ° F
Punto de rocío 21 ° F
Humedad 45%
Precipitaciones 0.00 pul
Espesor de la nieve No disponible.
UV 0 de una escala de 12
Polen .10 de una escala de 12
Calidad del aire No disponible.
Flu Activity No disponible.
METAR KTEB 230651Z 22003KT 10SM SCT120 05/M06 A3018 RMK AO2 SLP218 T00501061

More Conditions Fewer Conditions

Presión 30.18 pul
Visibilidad 10.0 Millas
Nubes Nubes dispersas 12000 ft
Vientos helados 39 ° F
Punto de rocío 21 ° F
Humedad 45%
Precipitaciones 0.00 pul
Espesor de la nieve No disponible.
UV 0 de una escala de 12
Polen .10 de una escala de 12
Calidad del aire No disponible.
Flu Activity No disponible.
METAR KTEB 230651Z 22003KT 10SM SCT120 05/M06 A3018 RMK AO2 SLP218 T00501061

More Conditions Fewer Conditions

10-Day Weather Forecast

Almanac

Astronomía

Nov. 23, 2014 Salida Puesta
Hora real
Crepúsculo civil
Crepúsculo náutico
Crepúsculo astronómico
Luna
Horas de luz
Horas de luz
Tomorrow will be .
, % of the Moon is Illuminated

Extremos de hoy

Máximos del estado Bajos del estado

Community

WunderPhotos

Upload Photos

1,773,023 ¡fotos cargadas!

WunderBlogs® & News

Nearby

Calidad del aire

  Calidad del aire Índice AQ Contaminante
Not available.

Grosos de nieve

Estación Profundido Altura

Actividad de terremotos

Ciudad Distance Mag. Tiempo y dato
Magnitud mínima muestra es 2,5.

Temperaturas de aguas costeras

Lugar Temperatura

Estaciones meteorológicas cercanas